createdAt,value
2019-03-25T00:01:18.171Z,22.40
2019-03-25T00:03:47.505Z,22.73
2019-03-25T00:06:16.818Z,22.60
2019-03-25T00:08:46.320Z,22.17
2019-03-25T00:11:16.738Z,22.30
2019-03-25T00:13:45.946Z,24.17
2019-03-25T00:16:15.256Z,22.13
2019-03-25T00:18:45.451Z,22.03
2019-03-25T00:21:14.661Z,23.87
2019-03-25T00:23:43.945Z,25.03
2019-03-25T00:26:14.170Z,28.37
2019-03-25T00:28:44.285Z,26.40
2019-03-25T00:31:13.576Z,22.03
2019-03-25T00:33:42.801Z,23.63
2019-03-25T00:36:11.923Z,24.20
2019-03-25T00:38:41.307Z,23.50
2019-03-25T00:41:10.526Z,23.17
2019-03-25T00:43:39.744Z,22.33
2019-03-25T00:46:09.009Z,22.93
2019-03-25T00:48:37.997Z,23.97
2019-03-25T00:51:07.335Z,24.20
2019-03-25T00:53:36.525Z,23.77
2019-03-25T00:56:05.813Z,22.97
2019-03-25T00:58:34.952Z,23.53
2019-03-25T01:01:04.236Z,22.40
2019-03-25T01:03:33.371Z,23.43
2019-03-25T01:06:02.442Z,22.10
2019-03-25T01:08:31.683Z,24.13
2019-03-25T01:11:00.861Z,22.43
2019-03-25T01:13:30.022Z,23.27
2019-03-25T01:15:59.117Z,22.93
2019-03-25T01:18:28.689Z,22.83
2019-03-25T01:20:58.261Z,25.57
2019-03-25T01:23:27.575Z,22.83
2019-03-25T01:25:56.622Z,23.97
2019-03-25T01:28:25.755Z,24.07
2019-03-25T01:30:54.979Z,23.23
2019-03-25T01:33:24.015Z,23.53
2019-03-25T01:35:53.310Z,24.97
2019-03-25T01:38:22.318Z,24.70
2019-03-25T01:40:51.563Z,23.47
2019-03-25T01:43:20.761Z,23.27
2019-03-25T01:45:51.130Z,25.63
2019-03-25T01:48:20.339Z,24.87
2019-03-25T01:50:49.567Z,24.67
2019-03-25T01:53:18.843Z,23.23
2019-03-25T01:55:47.881Z,24.57
2019-03-25T01:58:17.040Z,23.00
2019-03-25T02:00:46.316Z,23.07
2019-03-25T02:03:15.352Z,24.77
2019-03-25T02:05:44.457Z,22.33
2019-03-25T02:08:13.538Z,24.13
2019-03-25T02:10:42.840Z,21.20
2019-03-25T02:13:12.110Z,24.17
2019-03-25T02:15:41.304Z,22.83
2019-03-25T02:18:10.495Z,23.13
2019-03-25T02:20:39.685Z,23.23
2019-03-25T02:23:09.431Z,22.60
2019-03-25T02:25:39.204Z,23.33
2019-03-25T02:28:08.459Z,23.43
2019-03-25T02:30:37.743Z,24.93
2019-03-25T02:33:07.075Z,24.30
2019-03-25T02:35:36.245Z,23.17
2019-03-25T02:38:05.481Z,22.97
2019-03-25T02:40:34.678Z,23.53
2019-03-25T02:43:03.997Z,26.07
2019-03-25T02:45:33.362Z,24.00
2019-03-25T02:48:03.649Z,24.87
2019-03-25T02:50:33.186Z,22.87
2019-03-25T02:53:02.316Z,23.77
2019-03-25T02:55:41.310Z,24.30
2019-03-25T02:58:02.543Z,24.47
2019-03-25T03:00:38.470Z,24.53
2019-03-25T03:03:08.248Z,24.50
2019-03-25T03:05:37.669Z,24.17
2019-03-25T03:08:06.946Z,25.97
2019-03-25T03:10:36.879Z,26.23
2019-03-25T03:13:06.051Z,25.20
2019-03-25T03:15:35.289Z,24.40
2019-03-25T03:18:04.670Z,24.23
2019-03-25T03:20:34.074Z,25.47
2019-03-25T03:23:03.380Z,26.40
2019-03-25T03:25:32.501Z,25.03
2019-03-25T03:28:01.969Z,26.93
2019-03-25T03:30:31.151Z,25.70
2019-03-25T03:33:01.342Z,25.87
2019-03-25T03:35:30.750Z,25.90
2019-03-25T03:38:00.149Z,25.17
2019-03-25T03:40:29.556Z,25.20
2019-03-25T03:42:58.819Z,25.67
2019-03-25T03:45:28.149Z,28.23
2019-03-25T03:47:57.233Z,28.40
2019-03-25T03:50:29.588Z,30.23
2019-03-25T03:52:58.960Z,29.73
2019-03-25T03:55:29.075Z,30.93
2019-03-25T03:57:59.377Z,30.60
2019-03-25T04:00:32.809Z,31.17
2019-03-25T04:03:02.250Z,30.23
2019-03-25T04:05:31.691Z,31.10
2019-03-25T04:08:00.987Z,31.20
2019-03-25T04:10:30.295Z,29.73
2019-03-25T04:12:59.600Z,28.90
2019-03-25T04:15:30.512Z,29.03
2019-03-25T04:17:59.961Z,31.33
2019-03-25T04:20:29.259Z,27.63
2019-03-25T04:22:58.697Z,27.97
2019-03-25T04:25:27.895Z,26.67
2019-03-25T04:27:57.922Z,27.90
2019-03-25T04:30:28.493Z,27.33
2019-03-25T04:32:57.876Z,28.23
2019-03-25T04:35:28.166Z,28.33
2019-03-25T04:37:57.429Z,30.03
2019-03-25T04:40:26.798Z,26.57
2019-03-25T04:42:57.106Z,26.47
2019-03-25T04:45:27.377Z,27.10
2019-03-25T04:47:57.777Z,29.13
2019-03-25T04:50:26.914Z,26.97
2019-03-25T04:52:56.129Z,27.70
2019-03-25T04:55:25.652Z,27.97
2019-03-25T04:57:55.088Z,26.37
2019-03-25T05:00:37.645Z,28.90
2019-03-25T05:03:07.075Z,30.90
2019-03-25T05:05:36.437Z,32.30
2019-03-25T05:08:06.034Z,31.97
2019-03-25T05:10:35.292Z,31.77
2019-03-25T05:13:04.675Z,31.03
2019-03-25T05:15:35.099Z,29.53
2019-03-25T05:18:05.402Z,28.77
2019-03-25T05:20:34.623Z,28.33
2019-03-25T05:23:03.931Z,30.17
2019-03-25T05:25:33.097Z,31.27
2019-03-25T05:28:02.190Z,29.13
2019-03-25T05:30:31.309Z,29.63
2019-03-25T05:33:00.286Z,30.73
2019-03-25T05:35:31.265Z,29.67
2019-03-25T05:38:00.552Z,31.87
2019-03-25T05:40:29.854Z,32.73
2019-03-25T05:42:59.006Z,31.97
2019-03-25T05:45:28.274Z,31.00
2019-03-25T05:47:57.451Z,35.30
2019-03-25T05:50:26.741Z,33.53
2019-03-25T05:52:55.995Z,33.03
2019-03-25T05:55:25.216Z,35.63
2019-03-25T05:57:54.529Z,35.70
2019-03-25T06:00:26.095Z,35.20
2019-03-25T06:02:55.069Z,32.97
2019-03-25T06:05:24.163Z,33.73
2019-03-25T06:07:53.376Z,34.17
2019-03-25T06:10:22.537Z,37.10
2019-03-25T06:12:51.692Z,35.50
2019-03-25T06:15:21.896Z,38.40
2019-03-25T06:17:51.148Z,35.67
2019-03-25T06:20:20.458Z,35.77
2019-03-25T06:22:49.696Z,36.17
2019-03-25T06:25:18.840Z,34.90
2019-03-25T06:27:48.080Z,35.00
2019-03-25T06:30:17.428Z,34.03
2019-03-25T06:32:46.598Z,33.60
2019-03-25T06:35:15.832Z,27.43
2019-03-25T06:37:45.976Z,24.27
2019-03-25T06:40:15.284Z,22.90
2019-03-25T06:42:44.493Z,21.97
2019-03-25T06:45:17.107Z,20.80
2019-03-25T06:47:46.538Z,20.50
2019-03-25T06:50:17.904Z,20.57
2019-03-25T06:52:48.253Z,23.52
2019-03-25T06:55:17.498Z,23.97
2019-03-25T06:57:46.851Z,21.27
2019-03-25T07:00:18.316Z,24.10
2019-03-25T07:02:47.518Z,18.60
2019-03-25T07:05:16.861Z,22.87
2019-03-25T07:07:46.468Z,18.47
2019-03-25T07:10:23.626Z,22.47
2019-03-25T07:12:54.121Z,23.10
2019-03-25T07:15:27.476Z,20.63
2019-03-25T07:17:56.897Z,21.07
2019-03-25T07:20:26.216Z,23.90
2019-03-25T07:22:55.308Z,23.50
2019-03-25T07:25:24.572Z,25.10
2019-03-25T07:27:53.814Z,23.87
2019-03-25T07:30:23.402Z,20.77
2019-03-25T07:32:53.637Z,23.80
2019-03-25T07:35:22.941Z,22.87
2019-03-25T07:37:57.932Z,19.80
2019-03-25T07:40:27.268Z,21.73
2019-03-25T07:42:57.493Z,21.60
2019-03-25T07:45:26.906Z,24.77
2019-03-25T07:48:04.014Z,22.50
2019-03-25T07:50:32.803Z,22.13
2019-03-25T07:53:01.899Z,21.47
2019-03-25T07:55:33.189Z,20.57
2019-03-25T07:58:03.378Z,21.93
2019-03-25T08:00:32.877Z,17.77
2019-03-25T08:03:03.020Z,19.13
2019-03-25T08:05:32.294Z,20.53
2019-03-25T08:08:01.600Z,23.40
2019-03-25T08:10:35.245Z,20.27
2019-03-25T08:13:08.023Z,18.50
2019-03-25T08:15:38.341Z,20.03
2019-03-25T08:18:07.886Z,19.90
2019-03-25T08:20:39.545Z,19.57
2019-03-25T08:23:08.832Z,19.67
2019-03-25T08:25:39.139Z,24.50
2019-03-25T08:28:12.359Z,19.73
2019-03-25T08:30:41.748Z,23.03
2019-03-25T08:33:14.663Z,21.67
2019-03-25T08:35:45.912Z,20.97
2019-03-25T08:38:16.210Z,20.00
2019-03-25T08:40:45.361Z,25.30
2019-03-25T08:43:14.564Z,21.57
2019-03-25T08:45:43.925Z,21.90
2019-03-25T08:48:13.159Z,23.47
2019-03-25T08:50:42.417Z,21.00
2019-03-25T08:53:11.708Z,24.10
2019-03-25T08:55:41.017Z,23.93
2019-03-25T08:58:12.451Z,23.93
2019-03-25T09:00:41.881Z,20.60
2019-03-25T09:03:11.221Z,21.67
2019-03-25T09:05:40.418Z,22.63
2019-03-25T09:08:09.809Z,21.43
2019-03-25T09:10:38.878Z,26.67
2019-03-25T09:13:08.043Z,24.13
2019-03-25T09:15:43.264Z,23.70
2019-03-25T09:18:12.493Z,21.45
2019-03-25T09:20:41.603Z,23.87
2019-03-25T09:23:10.976Z,25.83
2019-03-25T09:25:41.464Z,20.10
2019-03-25T09:28:23.640Z,21.57
2019-03-25T09:31:15.899Z,24.00
2019-03-25T09:33:47.865Z,23.10
2019-03-25T09:36:18.990Z,22.80
2019-03-25T09:38:52.243Z,29.37
2019-03-25T09:41:21.675Z,25.73
2019-03-25T09:43:50.940Z,23.60
2019-03-25T09:46:21.279Z,25.93
2019-03-25T09:48:50.730Z,25.50
2019-03-25T09:51:20.180Z,25.77
2019-03-25T09:53:49.605Z,26.73
2019-03-25T09:56:18.932Z,25.33
2019-03-25T09:58:48.805Z,28.03
2019-03-25T10:01:18.241Z,29.43
2019-03-25T10:03:48.656Z,29.23
2019-03-25T10:06:18.195Z,28.83
2019-03-25T10:08:47.666Z,29.23
2019-03-25T10:11:17.153Z,29.13
2019-03-25T10:13:50.539Z,30.47
2019-03-25T10:16:21.807Z,28.40
2019-03-25T10:18:51.011Z,34.43
2019-03-25T10:21:26.271Z,36.03
2019-03-25T10:23:56.911Z,31.23
2019-03-25T10:26:27.062Z,33.80
2019-03-25T10:28:56.599Z,29.60
2019-03-25T10:31:26.013Z,34.67
2019-03-25T10:33:56.356Z,29.20
2019-03-25T10:36:25.630Z,30.73
2019-03-25T10:38:56.984Z,30.13
2019-03-25T10:41:26.069Z,32.90
2019-03-25T10:43:56.400Z,34.93
2019-03-25T10:46:25.632Z,32.53
2019-03-25T10:48:54.805Z,37.70
2019-03-25T10:51:24.824Z,32.03
2019-03-25T10:53:54.163Z,33.38
2019-03-25T10:56:23.474Z,30.80
2019-03-25T10:58:58.053Z,30.10
2019-03-25T11:01:25.886Z,33.02
2019-03-25T11:03:57.491Z,29.63
2019-03-25T11:06:26.828Z,34.40
2019-03-25T11:08:56.084Z,34.17
2019-03-25T11:11:28.870Z,35.07
2019-03-25T11:13:58.087Z,36.33
2019-03-25T11:16:27.342Z,34.43
2019-03-25T11:18:56.679Z,34.73
2019-03-25T11:21:25.880Z,32.67
2019-03-25T11:23:55.180Z,31.97
2019-03-25T11:26:24.566Z,34.50
2019-03-25T11:28:53.673Z,32.53
2019-03-25T11:31:22.876Z,32.50
2019-03-25T11:33:52.184Z,29.48
2019-03-25T11:36:21.519Z,30.77
2019-03-25T11:38:50.739Z,33.23
2019-03-25T11:41:21.238Z,30.93
2019-03-25T11:43:50.416Z,30.70
2019-03-25T11:46:19.795Z,31.43
2019-03-25T11:48:48.895Z,31.02
2019-03-25T11:51:18.358Z,27.50
2019-03-25T11:53:47.784Z,28.57
2019-03-25T11:56:17.065Z,32.15
2019-03-25T11:58:46.277Z,32.93
2019-03-25T12:01:15.526Z,34.87
2019-03-25T12:03:44.824Z,31.17
2019-03-25T12:06:14.130Z,30.07
2019-03-25T12:08:43.299Z,30.60
2019-03-25T12:11:12.634Z,32.77
2019-03-25T12:13:42.029Z,32.00
2019-03-25T12:16:11.481Z,31.87
2019-03-25T12:18:40.635Z,32.30
2019-03-25T12:21:09.760Z,29.80
2019-03-25T12:23:38.953Z,31.10
2019-03-25T12:26:08.210Z,29.60
2019-03-25T12:28:37.504Z,30.92
2019-03-25T12:31:06.952Z,31.60
2019-03-25T12:33:36.178Z,32.67
2019-03-25T12:36:05.434Z,35.43
2019-03-25T12:38:34.835Z,35.48
2019-03-25T12:41:04.093Z,30.23
2019-03-25T12:43:33.306Z,30.83
2019-03-25T12:46:02.660Z,32.10
2019-03-25T12:48:32.202Z,33.90
2019-03-25T12:51:01.196Z,31.87
2019-03-25T12:53:30.420Z,29.83
2019-03-25T12:55:59.727Z,30.80
2019-03-25T12:58:29.072Z,30.97
2019-03-25T13:00:59.762Z,32.63
2019-03-25T13:03:29.033Z,32.83
2019-03-25T13:06:01.607Z,30.67
2019-03-25T13:08:33.314Z,32.80
2019-03-25T13:11:02.309Z,35.83
2019-03-25T13:13:31.329Z,31.53
2019-03-25T13:16:02.488Z,33.83
2019-03-25T13:18:35.332Z,33.43
2019-03-25T13:21:04.770Z,30.55
2019-03-25T13:23:34.114Z,36.20
2019-03-25T13:26:05.472Z,35.93
2019-03-25T13:28:34.691Z,32.05
2019-03-25T13:31:04.047Z,30.15
2019-03-25T13:33:33.369Z,31.90
2019-03-25T13:36:03.308Z,37.10
2019-03-25T13:38:32.388Z,33.80
2019-03-25T13:41:01.631Z,33.05
2019-03-25T13:43:32.937Z,32.90
2019-03-25T13:46:05.719Z,32.73
2019-03-25T13:48:33.552Z,36.10
2019-03-25T13:51:03.032Z,33.48
2019-03-25T13:53:32.405Z,32.50
2019-03-25T13:56:03.878Z,31.67
2019-03-25T13:58:33.350Z,32.27
2019-03-25T14:01:02.757Z,33.97
2019-03-25T14:03:31.955Z,33.73
2019-03-25T14:06:01.178Z,34.63
2019-03-25T14:08:30.541Z,29.70
2019-03-25T14:11:00.003Z,32.75
2019-03-25T14:13:29.447Z,32.97
2019-03-25T14:15:58.601Z,36.53
2019-03-25T14:18:27.770Z,30.80
2019-03-25T14:20:56.828Z,33.37
2019-03-25T14:23:26.202Z,37.50
2019-03-25T14:25:55.635Z,34.17
2019-03-25T14:28:25.883Z,39.47
2019-03-25T14:30:55.063Z,33.83
2019-03-25T14:33:24.268Z,35.03
2019-03-25T14:35:54.658Z,32.00
2019-03-25T14:38:25.724Z,32.63
2019-03-25T14:40:57.265Z,33.95
2019-03-25T14:43:26.669Z,35.68
2019-03-25T14:45:55.942Z,35.45
2019-03-25T14:48:29.615Z,32.70
2019-03-25T14:50:59.259Z,36.47
2019-03-25T14:53:28.756Z,32.40
2019-03-25T14:55:58.281Z,32.70
2019-03-25T14:58:27.791Z,35.33
2019-03-25T15:00:57.022Z,41.33
2019-03-25T15:03:26.257Z,32.17
2019-03-25T15:05:55.522Z,32.70
2019-03-25T15:08:24.914Z,31.95
2019-03-25T15:10:55.097Z,33.98
2019-03-25T15:13:24.488Z,34.57
2019-03-25T15:15:53.923Z,36.98
2019-03-25T15:18:23.039Z,32.10
2019-03-25T15:20:53.178Z,32.03
2019-03-25T15:23:22.381Z,34.90
2019-03-25T15:25:51.724Z,32.70
2019-03-25T15:28:21.120Z,33.80
2019-03-25T15:30:50.356Z,36.57
2019-03-25T15:33:20.228Z,38.53
2019-03-25T15:35:49.567Z,35.87
2019-03-25T15:38:18.704Z,34.23
2019-03-25T15:40:47.857Z,34.77
2019-03-25T15:43:18.238Z,37.77
2019-03-25T15:45:51.839Z,36.93
2019-03-25T15:48:21.664Z,36.77
2019-03-25T15:50:51.149Z,33.23
2019-03-25T15:53:23.987Z,31.27
2019-03-25T15:55:53.387Z,25.00
2019-03-25T15:58:26.352Z,36.10
2019-03-25T16:00:54.730Z,29.70
2019-03-25T16:03:23.963Z,26.87
2019-03-25T16:05:53.321Z,30.90
2019-03-25T16:08:22.729Z,26.87
2019-03-25T16:10:52.006Z,24.37
2019-03-25T16:13:21.465Z,27.20
2019-03-25T16:15:50.886Z,26.97
2019-03-25T16:18:37.363Z,27.53
2019-03-25T16:21:06.944Z,28.30
2019-03-25T16:23:36.271Z,26.53
2019-03-25T16:26:05.745Z,23.97
2019-03-25T16:28:35.167Z,27.63
2019-03-25T16:31:06.399Z,27.03
2019-03-25T16:33:35.772Z,27.57
2019-03-25T16:36:05.085Z,29.83
2019-03-25T16:38:36.403Z,34.33
2019-03-25T16:41:05.603Z,34.00
2019-03-25T16:43:34.774Z,28.77
2019-03-25T16:46:06.042Z,33.50
2019-03-25T16:48:35.398Z,30.93
2019-03-25T16:51:05.801Z,33.00
2019-03-25T16:53:37.262Z,31.13
2019-03-25T16:56:10.268Z,34.00
2019-03-25T16:58:39.775Z,32.50
2019-03-25T17:01:10.113Z,33.57
2019-03-25T17:03:40.035Z,33.83
2019-03-25T17:06:11.268Z,32.87
2019-03-25T17:08:40.512Z,35.03
2019-03-25T17:11:09.775Z,37.60
2019-03-25T17:13:39.113Z,37.33
2019-03-25T17:16:08.428Z,38.10
2019-03-25T17:18:37.537Z,35.53
2019-03-25T17:21:06.628Z,36.40
2019-03-25T17:23:35.818Z,36.80
2019-03-25T17:26:05.175Z,43.97
2019-03-25T17:28:34.594Z,39.33
2019-03-25T17:31:03.978Z,39.00
2019-03-25T17:33:34.029Z,39.17
2019-03-25T17:36:04.538Z,38.93
2019-03-25T17:38:35.807Z,39.37
2019-03-25T17:41:05.108Z,39.00
2019-03-25T17:43:34.178Z,40.30
2019-03-25T17:46:03.784Z,42.50
2019-03-25T17:48:34.024Z,39.83
2019-03-25T17:51:03.590Z,40.37
2019-03-25T17:53:33.081Z,44.80
2019-03-25T17:56:02.589Z,43.70
2019-03-25T17:58:31.655Z,47.53
2019-03-25T18:01:19.490Z,47.23
2019-03-25T18:03:50.219Z,42.77
2019-03-25T18:06:19.493Z,51.37
2019-03-25T18:08:50.832Z,47.87
2019-03-25T18:11:21.903Z,53.17
2019-03-25T18:13:52.290Z,19.40
2019-03-25T18:16:21.969Z,18.40
2019-03-25T18:18:54.833Z,18.60
2019-03-25T18:21:25.054Z,14.27
2019-03-25T18:23:55.902Z,19.60
2019-03-25T18:26:25.415Z,18.93
2019-03-25T18:28:56.955Z,19.03
2019-03-25T18:31:26.870Z,15.90
2019-03-25T18:33:57.232Z,18.33
2019-03-25T18:36:27.608Z,16.13
2019-03-25T18:38:57.033Z,16.97
2019-03-25T18:41:27.602Z,19.43
2019-03-25T18:43:57.075Z,17.83
2019-03-25T18:46:26.526Z,19.23
2019-03-25T18:48:55.728Z,21.90
2019-03-25T18:51:24.946Z,21.00
2019-03-25T18:53:56.467Z,22.50
2019-03-25T18:56:25.747Z,19.87
2019-03-25T18:58:55.305Z,23.57
2019-03-25T19:01:26.913Z,22.47
2019-03-25T19:03:56.311Z,27.00
2019-03-25T19:06:25.637Z,25.77
2019-03-25T19:08:55.880Z,27.40
2019-03-25T19:11:31.076Z,32.73
2019-03-25T19:13:55.928Z,39.27
2019-03-25T19:16:25.257Z,39.57
2019-03-25T19:18:54.442Z,47.57
2019-03-25T19:21:23.576Z,57.40
2019-03-25T19:23:52.965Z,58.43
2019-03-25T19:26:22.258Z,62.17
2019-03-25T19:28:51.536Z,62.43
2019-03-25T19:31:20.956Z,61.43
2019-03-25T19:33:50.229Z,69.23
2019-03-25T19:36:21.440Z,62.27
2019-03-25T19:38:52.525Z,29.43
2019-03-25T19:41:31.830Z,26.03
2019-03-25T19:43:52.791Z,15.37
2019-03-25T19:46:22.239Z,13.37
2019-03-25T19:48:53.610Z,12.47
2019-03-25T19:51:23.049Z,15.07
2019-03-25T19:53:55.786Z,11.93
2019-03-25T19:56:25.240Z,10.00
2019-03-25T19:58:54.327Z,7.80
2019-03-25T20:01:25.795Z,9.07
2019-03-25T20:03:55.931Z,8.93
2019-03-25T20:06:26.475Z,10.53
2019-03-25T20:08:56.064Z,9.43
2019-03-25T20:11:25.467Z,8.03
2019-03-25T20:13:54.941Z,7.40
2019-03-25T20:16:26.359Z,7.03
2019-03-25T20:19:02.911Z,6.27
2019-03-25T20:21:32.140Z,4.87
2019-03-25T20:24:01.424Z,6.60
2019-03-25T20:26:30.860Z,5.77
2019-03-25T20:29:00.309Z,6.67
2019-03-25T20:31:29.774Z,5.20
2019-03-25T20:34:10.466Z,5.90
2019-03-25T20:36:30.126Z,5.63
2019-03-25T20:38:59.482Z,5.33
2019-03-25T20:41:28.777Z,3.90
2019-03-25T20:43:59.168Z,4.37
2019-03-25T20:46:28.416Z,4.60
2019-03-25T20:48:57.912Z,4.90
2019-03-25T20:51:29.364Z,5.53
2019-03-25T20:53:58.711Z,5.77
2019-03-25T20:56:31.377Z,4.13
2019-03-25T20:59:00.583Z,4.90
2019-03-25T21:01:29.844Z,4.13
2019-03-25T21:03:59.164Z,5.30
2019-03-25T21:06:28.799Z,3.93
2019-03-25T21:09:08.604Z,4.40
2019-03-25T21:11:38.113Z,4.87
2019-03-25T21:14:07.529Z,3.70
2019-03-25T21:16:36.896Z,5.00
2019-03-25T21:19:06.106Z,4.13
2019-03-25T21:21:35.473Z,4.13
2019-03-25T21:24:04.827Z,4.50
2019-03-25T21:26:34.008Z,5.47
2019-03-25T21:29:03.389Z,4.90
2019-03-25T21:31:33.733Z,4.57
2019-03-25T21:34:03.062Z,4.63
2019-03-25T21:36:32.457Z,5.60
2019-03-25T21:39:01.828Z,4.10
2019-03-25T21:41:32.558Z,3.63
2019-03-25T21:44:01.843Z,4.07
2019-03-25T21:46:31.120Z,4.10
2019-03-25T21:49:00.547Z,3.57
2019-03-25T21:51:29.902Z,3.63
2019-03-25T21:53:59.162Z,4.70
2019-03-25T21:56:28.538Z,2.50
2019-03-25T21:59:00.404Z,3.27
2019-03-25T22:01:29.955Z,3.07
2019-03-25T22:03:59.320Z,2.77
2019-03-25T22:06:28.484Z,2.80
2019-03-25T22:08:57.911Z,3.07
2019-03-25T22:11:27.133Z,2.60
2019-03-25T22:13:56.117Z,2.77
2019-03-25T22:16:25.424Z,3.63
2019-03-25T22:18:54.616Z,4.73
2019-03-25T22:21:23.763Z,5.07
2019-03-25T22:23:53.895Z,2.90
2019-03-25T22:26:23.316Z,2.73
2019-03-25T22:28:52.463Z,2.80
2019-03-25T22:31:21.646Z,4.70
2019-03-25T22:33:50.849Z,2.77
2019-03-25T22:36:20.029Z,4.03
2019-03-25T22:38:49.161Z,3.00
2019-03-25T22:41:18.352Z,3.13
2019-03-25T22:43:47.701Z,3.00
2019-03-25T22:46:16.882Z,4.47
2019-03-25T22:48:46.072Z,4.67
2019-03-25T22:51:15.669Z,3.03
2019-03-25T22:53:44.754Z,4.47
2019-03-25T22:56:13.846Z,2.40
2019-03-25T22:58:42.993Z,3.97
2019-03-25T23:01:20.969Z,3.43
2019-03-25T23:03:51.893Z,2.87
2019-03-25T23:06:23.987Z,2.85
2019-03-25T23:08:53.083Z,2.67
2019-03-25T23:11:22.296Z,2.43
2019-03-25T23:13:51.516Z,2.23
2019-03-25T23:16:20.777Z,2.33
2019-03-25T23:18:49.952Z,4.53
2019-03-25T23:21:19.138Z,2.43
2019-03-25T23:23:48.273Z,2.33
2019-03-25T23:26:17.286Z,2.97
2019-03-25T23:28:47.672Z,2.40
2019-03-25T23:31:16.922Z,2.83
2019-03-25T23:33:52.043Z,2.57
2019-03-25T23:36:17.459Z,2.63
2019-03-25T23:38:47.828Z,2.97
2019-03-25T23:41:17.136Z,2.30
2019-03-25T23:43:46.295Z,3.20
2019-03-25T23:46:15.635Z,3.20
2019-03-25T23:48:44.853Z,3.00
2019-03-25T23:51:14.113Z,2.40
2019-03-25T23:53:43.434Z,3.57
2019-03-25T23:56:12.835Z,3.27
2019-03-25T23:58:42.100Z,2.93
